createdAt,value
2022-10-28T00:01:32.812Z,91.30
2022-10-28T00:04:34.787Z,43.00
2022-10-28T00:07:36.537Z,33.90
2022-10-28T00:13:40.999Z,70.60
2022-10-28T00:16:42.905Z,70.30
2022-10-28T00:19:44.710Z,53.10
2022-10-28T00:22:46.618Z,81.90
2022-10-28T00:25:48.344Z,111.80
2022-10-28T00:28:52.943Z,81.20
2022-10-28T00:31:55.897Z,96.50
2022-10-28T00:34:58.145Z,123.70
2022-10-28T00:37:59.954Z,111.30
2022-10-28T00:41:01.695Z,74.00
2022-10-28T00:44:42.353Z,63.60
2022-10-28T00:47:52.706Z,42.50
2022-10-28T00:50:55.280Z,47.90
2022-10-28T00:53:57.375Z,60.80
2022-10-28T00:57:00.505Z,53.50
2022-10-28T01:00:04.729Z,67.00
2022-10-28T01:03:06.821Z,50.50
2022-10-28T01:06:08.842Z,62.20
2022-10-28T01:09:10.631Z,61.10
2022-10-28T01:12:40.058Z,69.90
2022-10-28T01:16:16.926Z,39.60
2022-10-28T01:19:40.246Z,53.20
2022-10-28T01:22:54.269Z,40.60
2022-10-28T01:26:33.983Z,51.40
2022-10-28T01:30:11.198Z,52.70
2022-10-28T01:33:34.915Z,49.70
2022-10-28T01:36:51.714Z,58.60
2022-10-28T01:40:00.014Z,57.20
2022-10-28T01:43:46.341Z,49.00
2022-10-28T01:46:54.815Z,48.70
2022-10-28T01:50:04.718Z,53.50
2022-10-28T01:53:10.844Z,44.60
2022-10-28T01:56:16.657Z,49.60
2022-10-28T01:59:22.790Z,39.80
2022-10-28T02:02:25.109Z,46.90
2022-10-28T02:05:41.077Z,39.80
2022-10-28T02:08:42.888Z,52.30
2022-10-28T02:11:53.778Z,49.70
2022-10-28T02:15:16.985Z,48.10
2022-10-28T02:18:40.276Z,53.40
2022-10-28T02:21:57.495Z,58.40
2022-10-28T02:25:22.450Z,65.40
2022-10-28T02:28:45.060Z,71.60
2022-10-28T02:31:54.562Z,63.10
2022-10-28T02:34:58.878Z,59.70
2022-10-28T02:38:03.747Z,62.00
2022-10-28T02:41:17.732Z,60.20
2022-10-28T02:44:25.270Z,66.60
2022-10-28T02:47:29.247Z,64.50
2022-10-28T02:50:34.509Z,55.30
2022-10-28T02:53:54.888Z,42.50
2022-10-28T02:57:01.949Z,45.50
2022-10-28T03:00:10.319Z,52.50
2022-10-28T03:03:12.889Z,45.50
2022-10-28T03:06:14.691Z,65.10
2022-10-28T03:09:16.934Z,59.90
2022-10-28T03:12:18.722Z,58.40
2022-10-28T03:15:20.663Z,54.10
2022-10-28T03:18:22.443Z,56.00
2022-10-28T03:21:24.232Z,53.60
2022-10-28T03:24:27.266Z,70.60
2022-10-28T03:27:29.611Z,88.80
2022-10-28T03:30:31.339Z,75.20
2022-10-28T03:36:34.822Z,82.00
2022-10-28T03:42:41.366Z,92.30
2022-10-28T03:45:43.417Z,70.00
2022-10-28T03:48:45.168Z,55.00
2022-10-28T03:54:48.598Z,91.10
2022-10-28T04:00:53.035Z,70.50
2022-10-28T04:03:54.723Z,76.90
2022-10-28T04:09:58.224Z,62.90
2022-10-28T04:13:04.231Z,68.90
2022-10-28T04:16:06.455Z,78.50
2022-10-28T04:19:08.496Z,70.00
2022-10-28T04:22:10.290Z,70.30
2022-10-28T04:25:12.135Z,72.00
2022-10-28T04:28:14.296Z,57.30
2022-10-28T04:31:16.186Z,54.20
2022-10-28T04:34:17.920Z,54.60
2022-10-28T04:37:20.763Z,57.90
2022-10-28T04:40:22.618Z,61.40
2022-10-28T04:43:24.394Z,61.80
2022-10-28T04:46:26.273Z,58.20
2022-10-28T04:49:28.203Z,56.10
2022-10-28T04:52:30.158Z,52.20
2022-10-28T04:55:32.047Z,56.70
2022-10-28T04:58:33.768Z,67.70
2022-10-28T05:04:37.331Z,61.20
2022-10-28T05:10:40.845Z,67.60
2022-10-28T05:13:42.652Z,68.00
2022-10-28T05:16:44.421Z,196.20
2022-10-28T05:19:46.215Z,117.80
2022-10-28T05:22:50.391Z,145.30
2022-10-28T05:25:52.614Z,80.40
2022-10-28T05:28:54.468Z,152.50
2022-10-28T05:31:56.329Z,138.70
2022-10-28T05:34:58.221Z,89.30
2022-10-28T05:38:00.128Z,88.10
2022-10-28T05:41:02.069Z,119.00
2022-10-28T05:44:03.971Z,118.00
2022-10-28T05:47:05.719Z,127.50
2022-10-28T05:50:07.746Z,108.10
2022-10-28T05:53:09.467Z,104.00
2022-10-28T05:59:12.862Z,92.70
2022-10-28T06:05:17.181Z,62.10
2022-10-28T06:08:19.079Z,56.00
2022-10-28T06:11:19.178Z,67.80
2022-10-28T06:17:22.670Z,58.20
2022-10-28T06:20:24.486Z,63.70
2022-10-28T06:23:27.687Z,70.30
2022-10-28T06:26:29.356Z,66.90
2022-10-28T06:29:32.305Z,58.70
2022-10-28T06:32:33.953Z,63.70
2022-10-28T06:35:35.573Z,64.70
2022-10-28T06:38:37.393Z,62.70
2022-10-28T06:44:40.683Z,65.30
2022-10-28T06:50:45.644Z,46.70
2022-10-28T06:56:52.317Z,53.10
2022-10-28T07:02:56.995Z,53.50
2022-10-28T07:05:59.471Z,50.00
2022-10-28T07:09:01.242Z,57.90
2022-10-28T07:12:05.023Z,48.60
2022-10-28T07:15:08.149Z,45.30
2022-10-28T07:18:10.027Z,43.90
2022-10-28T07:21:14.044Z,43.30
2022-10-28T07:24:15.694Z,43.50
2022-10-28T07:27:17.420Z,39.30
2022-10-28T07:30:19.004Z,39.00
2022-10-28T07:33:20.930Z,38.50
2022-10-28T07:36:22.672Z,36.60
2022-10-28T07:39:24.688Z,39.80
2022-10-28T07:42:26.407Z,37.10
2022-10-28T07:45:28.332Z,33.70
2022-10-28T07:48:29.971Z,35.60
2022-10-28T07:51:31.801Z,35.40
2022-10-28T07:54:33.392Z,34.80
2022-10-28T07:57:35.345Z,37.80
2022-10-28T08:00:37.180Z,39.80
2022-10-28T08:03:39.346Z,37.40
2022-10-28T08:06:41.282Z,37.30
2022-10-28T08:09:43.049Z,39.80
2022-10-28T08:12:46.308Z,38.40
2022-10-28T08:15:55.127Z,36.60
2022-10-28T08:19:01.134Z,38.30
2022-10-28T08:22:06.881Z,37.40
2022-10-28T08:25:09.286Z,37.10
2022-10-28T08:28:11.038Z,40.50
2022-10-28T08:31:12.714Z,38.80
2022-10-28T08:34:14.511Z,35.30
2022-10-28T08:37:16.419Z,39.30
2022-10-28T08:40:20.882Z,42.40
2022-10-28T08:44:00.887Z,36.30
2022-10-28T08:47:14.792Z,37.10
2022-10-28T08:50:18.424Z,35.60
2022-10-28T08:53:26.056Z,31.70
2022-10-28T08:56:32.043Z,31.90
2022-10-28T08:59:39.371Z,30.70
2022-10-28T09:03:10.023Z,29.80
2022-10-28T09:06:11.826Z,27.20
2022-10-28T09:09:19.656Z,28.80
2022-10-28T09:12:34.340Z,26.20
2022-10-28T09:15:56.022Z,25.70
2022-10-28T09:18:59.233Z,27.90
2022-10-28T09:22:28.714Z,24.60
2022-10-28T09:25:48.716Z,25.60
2022-10-28T09:29:21.177Z,27.50
2022-10-28T09:32:43.854Z,24.70
2022-10-28T09:35:47.458Z,24.10
2022-10-28T09:38:51.879Z,25.90
2022-10-28T09:41:53.971Z,26.60
2022-10-28T09:44:59.888Z,25.80
2022-10-28T09:48:05.735Z,25.40
2022-10-28T09:51:27.958Z,30.50
2022-10-28T09:54:35.439Z,24.80
2022-10-28T09:57:37.096Z,26.10
2022-10-28T10:00:39.661Z,23.20
2022-10-28T10:03:41.908Z,26.40
2022-10-28T10:06:48.550Z,25.50
2022-10-28T10:09:50.498Z,23.00
2022-10-28T10:12:55.958Z,25.90
2022-10-28T10:16:02.536Z,21.70
2022-10-28T10:19:06.649Z,24.10
2022-10-28T10:22:08.359Z,23.60
2022-10-28T10:25:18.971Z,21.50
2022-10-28T10:28:21.538Z,24.00
2022-10-28T10:31:26.182Z,28.00
2022-10-28T10:34:30.143Z,24.80
2022-10-28T10:37:34.758Z,22.30
2022-10-28T10:40:52.907Z,22.80
2022-10-28T10:43:54.607Z,22.20
2022-10-28T10:47:16.534Z,20.90
2022-10-28T10:50:23.170Z,22.90
2022-10-28T10:53:28.236Z,24.60
2022-10-28T10:56:31.606Z,20.70
2022-10-28T10:59:34.994Z,22.60
2022-10-28T11:02:39.810Z,20.00
2022-10-28T11:05:55.146Z,22.10
2022-10-28T11:09:17.611Z,25.50
2022-10-28T11:12:31.967Z,23.00
2022-10-28T11:15:33.695Z,23.90
2022-10-28T11:18:43.959Z,21.30
2022-10-28T11:21:55.388Z,22.90
2022-10-28T11:25:15.306Z,24.20
2022-10-28T11:28:30.027Z,25.30
2022-10-28T11:31:48.266Z,22.30
2022-10-28T11:35:20.588Z,22.40
2022-10-28T11:38:45.863Z,26.40
2022-10-28T11:42:00.852Z,24.60
2022-10-28T11:45:26.694Z,24.90
2022-10-28T11:48:47.100Z,22.30
2022-10-28T11:52:00.528Z,23.50
2022-10-28T11:55:31.459Z,24.60
2022-10-28T11:58:53.247Z,25.40
2022-10-28T12:02:36.860Z,24.20
2022-10-28T12:05:51.216Z,23.20
2022-10-28T12:09:01.625Z,23.80
2022-10-28T12:12:06.003Z,25.90
2022-10-28T12:15:39.154Z,24.90
2022-10-28T12:19:16.356Z,21.70
2022-10-28T12:22:34.152Z,25.90
2022-10-28T12:25:36.885Z,24.20
2022-10-28T12:28:43.990Z,28.20
2022-10-28T12:31:49.199Z,22.20
2022-10-28T12:34:56.434Z,25.00
2022-10-28T12:38:02.792Z,26.80
2022-10-28T12:41:16.215Z,28.00
2022-10-28T12:44:20.448Z,25.40
2022-10-28T12:47:25.754Z,26.20
2022-10-28T12:50:48.798Z,25.00
2022-10-28T12:54:17.273Z,27.10
2022-10-28T12:57:21.411Z,27.10
2022-10-28T13:00:28.702Z,24.50
2022-10-28T13:03:30.464Z,24.60
2022-10-28T13:09:52.447Z,25.80
2022-10-28T13:13:14.566Z,23.30
2022-10-28T13:16:53.651Z,23.60
2022-10-28T13:20:03.296Z,21.80
2022-10-28T13:23:33.361Z,18.80
2022-10-28T13:26:36.825Z,22.70
2022-10-28T13:29:40.551Z,18.60
2022-10-28T13:32:42.689Z,23.80
2022-10-28T13:35:44.630Z,20.40
2022-10-28T13:39:00.806Z,21.30
2022-10-28T13:42:19.581Z,20.90
2022-10-28T13:45:44.559Z,20.40
2022-10-28T13:48:46.793Z,18.20
2022-10-28T13:51:51.342Z,25.70
2022-10-28T13:54:55.149Z,21.40
2022-10-28T13:58:23.587Z,23.30
2022-10-28T14:01:56.529Z,25.20
2022-10-28T14:05:11.316Z,20.70
2022-10-28T14:08:28.458Z,23.10
2022-10-28T14:11:32.642Z,25.00
2022-10-28T14:14:34.377Z,20.80
2022-10-28T14:17:41.188Z,24.60
2022-10-28T14:20:48.763Z,20.30
2022-10-28T14:24:07.460Z,20.10
2022-10-28T14:27:09.430Z,25.00
2022-10-28T14:30:16.717Z,23.70
2022-10-28T14:33:22.203Z,23.70
2022-10-28T14:36:53.327Z,25.60
2022-10-28T14:40:07.816Z,24.80
2022-10-28T14:43:30.620Z,29.00
2022-10-28T14:46:39.454Z,31.90
2022-10-28T14:49:42.051Z,30.00
2022-10-28T14:52:44.382Z,25.20
2022-10-28T14:55:47.837Z,37.40
2022-10-28T14:58:50.364Z,35.10
2022-10-28T15:02:17.500Z,36.80
2022-10-28T15:05:21.348Z,40.50
2022-10-28T15:08:24.748Z,42.10
2022-10-28T15:11:26.462Z,31.40
2022-10-28T15:14:33.569Z,36.60
2022-10-28T15:17:42.491Z,26.00
2022-10-28T15:20:44.142Z,26.10
2022-10-28T15:23:47.479Z,35.70
2022-10-28T15:26:54.502Z,33.80
2022-10-28T15:29:56.338Z,31.20
2022-10-28T15:33:26.984Z,36.40
2022-10-28T15:36:28.799Z,51.60
2022-10-28T15:39:30.491Z,54.10
2022-10-28T15:43:01.163Z,60.80
2022-10-28T15:46:10.919Z,70.70
2022-10-28T15:49:37.713Z,51.20
2022-10-28T15:52:52.403Z,44.30
2022-10-28T15:56:17.158Z,46.60
2022-10-28T15:59:23.808Z,32.20
2022-10-28T16:02:42.417Z,32.60
2022-10-28T16:05:45.434Z,32.30
2022-10-28T16:08:47.792Z,48.10
2022-10-28T16:11:51.865Z,37.90
2022-10-28T16:14:55.377Z,41.00
2022-10-28T16:17:57.397Z,30.40
2022-10-28T16:20:59.854Z,34.80
2022-10-28T16:24:02.937Z,33.30
2022-10-28T16:27:21.135Z,35.40
2022-10-28T16:33:37.355Z,48.70
2022-10-28T16:36:39.049Z,38.00
2022-10-28T16:39:40.658Z,39.20
2022-10-28T16:42:43.161Z,54.10
2022-10-28T16:45:44.740Z,48.30
2022-10-28T16:48:46.716Z,56.60
2022-10-28T16:51:48.383Z,74.30
2022-10-28T16:54:51.068Z,63.40
2022-10-28T16:57:52.994Z,60.30
2022-10-28T17:00:55.891Z,54.50
2022-10-28T17:03:57.533Z,35.20
2022-10-28T17:06:59.308Z,30.70
2022-10-28T17:10:00.995Z,29.90
2022-10-28T17:13:03.305Z,33.00
2022-10-28T17:16:05.328Z,33.90
2022-10-28T17:19:06.980Z,32.60
2022-10-28T17:22:10.291Z,86.00
2022-10-28T17:25:12.427Z,79.20
2022-10-28T17:28:14.017Z,75.30
2022-10-28T17:31:19.217Z,55.40
2022-10-28T17:34:24.036Z,49.90
2022-10-28T17:37:25.774Z,52.40
2022-10-28T17:40:27.457Z,63.80
2022-10-28T17:43:29.079Z,72.70
2022-10-28T17:46:31.486Z,63.40
2022-10-28T17:49:34.395Z,65.20
2022-10-28T17:52:38.523Z,67.20
2022-10-28T17:55:42.124Z,62.10
2022-10-28T17:58:44.041Z,49.20
2022-10-28T18:01:45.711Z,53.60
2022-10-28T18:04:47.665Z,46.20
2022-10-28T18:07:49.331Z,53.60
2022-10-28T18:10:55.248Z,63.20
2022-10-28T18:13:57.076Z,63.90
2022-10-28T18:16:58.776Z,59.60
2022-10-28T18:20:02.170Z,65.40
2022-10-28T18:23:04.137Z,53.50
2022-10-28T18:26:07.981Z,47.40
2022-10-28T18:29:10.204Z,50.30
2022-10-28T18:32:12.134Z,47.70
2022-10-28T18:35:13.786Z,43.00
2022-10-28T18:38:15.628Z,50.80
2022-10-28T18:41:22.268Z,44.00
2022-10-28T18:44:31.643Z,50.20
2022-10-28T18:47:34.506Z,60.30
2022-10-28T18:50:36.136Z,81.30
2022-10-28T18:53:46.412Z,54.40
2022-10-28T18:56:49.186Z,47.50
2022-10-28T19:00:17.544Z,43.80
2022-10-28T19:06:23.031Z,38.90
2022-10-28T19:09:24.623Z,45.40
2022-10-28T19:12:26.332Z,44.40
2022-10-28T19:15:28.120Z,45.30
2022-10-28T19:18:30.392Z,45.40
2022-10-28T19:21:32.176Z,46.20
2022-10-28T19:24:34.530Z,52.00
2022-10-28T19:27:36.189Z,49.00
2022-10-28T19:30:37.836Z,50.10
2022-10-28T19:33:39.636Z,49.10
2022-10-28T19:36:41.287Z,43.80
2022-10-28T19:39:42.893Z,42.80
2022-10-28T19:42:44.617Z,45.50
2022-10-28T19:45:46.425Z,41.60
2022-10-28T19:48:50.073Z,38.30
2022-10-28T19:51:51.681Z,42.50
2022-10-28T19:54:53.420Z,43.40
2022-10-28T19:57:55.857Z,48.10
2022-10-28T20:01:03.525Z,49.50
2022-10-28T20:04:05.642Z,56.30
2022-10-28T20:10:28.383Z,178.70
2022-10-28T20:13:30.302Z,138.30
2022-10-28T20:16:32.975Z,195.70
2022-10-28T20:19:34.753Z,116.60
2022-10-28T20:22:41.318Z,44.60
2022-10-28T20:25:51.804Z,45.20
2022-10-28T20:28:53.816Z,46.10
2022-10-28T20:31:55.557Z,45.40
2022-10-28T20:34:57.232Z,192.80
2022-10-28T20:37:59.275Z,327.90
2022-10-28T20:41:01.034Z,52.10
2022-10-28T20:44:03.112Z,104.90
2022-10-28T20:47:05.120Z,65.90
2022-10-28T20:50:07.817Z,92.50
2022-10-28T20:53:09.449Z,63.90
2022-10-28T20:56:24.058Z,75.00
2022-10-28T20:59:25.721Z,79.40
2022-10-28T21:02:27.937Z,73.00
2022-10-28T21:05:31.537Z,74.50
2022-10-28T21:08:33.174Z,74.90
2022-10-28T21:11:35.415Z,74.00
2022-10-28T21:14:37.161Z,86.60
2022-10-28T21:17:39.094Z,95.50
2022-10-28T21:20:40.763Z,98.10
2022-10-28T21:23:42.511Z,101.90
2022-10-28T21:26:47.202Z,101.90
2022-10-28T21:29:51.608Z,98.50
2022-10-28T21:32:53.922Z,92.90
2022-10-28T21:36:00.697Z,83.40
2022-10-28T21:39:02.387Z,76.00
2022-10-28T21:42:04.250Z,69.40
2022-10-28T21:45:07.732Z,70.30
2022-10-28T21:48:09.352Z,71.20
2022-10-28T21:51:14.789Z,89.50
2022-10-28T21:54:18.669Z,83.20
2022-10-28T21:57:20.569Z,79.30
2022-10-28T22:00:22.236Z,80.40
2022-10-28T22:03:23.944Z,75.90
2022-10-28T22:06:25.740Z,74.40
2022-10-28T22:09:27.302Z,77.30
2022-10-28T22:12:29.910Z,74.00
2022-10-28T22:15:31.745Z,75.20
2022-10-28T22:18:34.831Z,71.40
2022-10-28T22:21:40.391Z,77.40
2022-10-28T22:24:42.104Z,84.30
2022-10-28T22:27:45.014Z,83.50
2022-10-28T22:30:46.628Z,80.40
2022-10-28T22:33:48.550Z,83.60
2022-10-28T22:36:50.405Z,76.60
2022-10-28T22:39:52.032Z,86.40
2022-10-28T22:42:53.782Z,85.70
2022-10-28T22:45:57.042Z,82.90
2022-10-28T22:48:58.881Z,80.20
2022-10-28T22:52:00.791Z,78.50
2022-10-28T22:55:02.497Z,78.40
2022-10-28T22:58:04.188Z,75.40
2022-10-28T23:01:11.603Z,73.80
2022-10-28T23:04:13.358Z,73.40
2022-10-28T23:07:34.874Z,80.10
2022-10-28T23:10:50.737Z,81.10
2022-10-28T23:13:58.354Z,78.20
2022-10-28T23:17:00.020Z,68.60
2022-10-28T23:20:02.132Z,67.10
2022-10-28T23:23:04.191Z,68.20
2022-10-28T23:26:07.139Z,77.40
2022-10-28T23:29:08.831Z,74.90
2022-10-28T23:32:10.714Z,74.40
2022-10-28T23:35:12.350Z,76.70
2022-10-28T23:38:16.533Z,76.60
2022-10-28T23:41:20.902Z,74.20
2022-10-28T23:44:23.094Z,75.90
2022-10-28T23:47:24.701Z,78.90
2022-10-28T23:50:26.483Z,86.20
2022-10-28T23:53:34.051Z,77.20
2022-10-28T23:56:35.672Z,75.10
2022-10-28T23:59:37.401Z,81.80
